^^
Grace C. Lehan Memorial Weather Station Historical Data
Daily Summary for October 03, 2022 Units:  English    Metric   Both
Daily Weekly Monthly Yearly
  High: Low: Average:
Temperature: 54.9 °F 47.8 °F 50.7 °F
Dew Point: 44.2 °F 38.1 °F 41.2 °F
Humidity: 77% 64% 70%
Wind Speed: 3.4mph 0mph 1.1mph
Wind Gust: 16mph - -
Wind- - East
Pressure: 30.26 in 30.17 in -
Precipitation: 0.00 in    
 
 
Tabular Data for October 03, 2022
Time Temperature Dew Point Pressure Wind Wind Speed Wind Gust Humidity Rainfall Rate (Hourly) solar
00:09 49.9 °F 38.2 °F 30.21 in North 0.5 mph 6 mph 64% 0.00 in 0 W/m2
00:14 49.8 °F 38.1 °F 30.21 in NE 1 mph 11 mph 64% 0.00 in 0 W/m2
00:19 49.8 °F 38.1 °F 30.21 in NE 0.3 mph 11 mph 64% 0.00 in 0 W/m2
00:24 49.8 °F 38.1 °F 30.21 in East 0.5 mph 11 mph 64% 0.00 in 0 W/m2
00:29 49.8 °F 38.4 °F 30.21 in ENE 0.7 mph 11 mph 64.7% 0.00 in 0 W/m2
00:34 49.8 °F 38.5 °F 30.21 in East 0.4 mph 11 mph 65% 0.00 in 0 W/m2
00:39 49.9 °F 38.7 °F 30.21 in ENE 1.6 mph 10 mph 65.2% 0.00 in 0 W/m2
00:44 49.9 °F 38.6 °F 30.21 in NE 0.9 mph 11 mph 65% 0.00 in 0 W/m2
00:49 49.9 °F 38.8 °F 30.21 in NE 1.8 mph 11 mph 65.3% 0.00 in 0 W/m2
00:54 50 °F 38.7 °F 30.21 in ENE 1.2 mph 11 mph 65% 0.00 in 0 W/m2
00:59 50 °F 39 °F 30.21 in ENE 1.5 mph 11 mph 65.7% 0.00 in 0 W/m2
01:04 50.1 °F 39.2 °F 30.21 in NE 2.2 mph 11 mph 66% 0.00 in 0 W/m2
01:09 50.1 °F 39.2 °F 30.22 in NE 0.4 mph 10 mph 66% 0.00 in 0 W/m2
01:14 50.1 °F 39.3 °F 30.22 in NE 1 mph 10 mph 66.1% 0.00 in 0 W/m2
01:19 50.2 °F 39.3 °F 30.22 in ENE 0.6 mph 10 mph 66.2% 0.00 in 0 W/m2
01:24 50.2 °F 39.3 °F 30.22 in ENE 2 mph 10 mph 66% 0.00 in 0 W/m2
01:29 50.2 °F 39.5 °F 30.21 in NE 1.9 mph 10 mph 66.3% 0.00 in 0 W/m2
01:34 50.2 °F 39.7 °F 30.22 in NE 1.2 mph 10 mph 67% 0.00 in 0 W/m2
01:39 50.2 °F 39.7 °F 30.22 in North 0.5 mph 8 mph 67% 0.00 in 0 W/m2
01:44 50.2 °F 39.7 °F 30.21 in NNE 0.3 mph 8 mph 67% 0.00 in 0 W/m2
01:49 50.1 °F 39.6 °F 30.21 in NNW 0.3 mph 8 mph 67% 0.00 in 0 W/m2
01:54 50 °F 39.7 °F 30.21 in NNE 0.1 mph 8 mph 67.6% 0.00 in 0 W/m2
01:59 49.9 °F 39.4 °F 30.21 in ENE 0.1 mph 8 mph 67.1% 0.00 in 0 W/m2
02:02 49.8 °F 39.3 °F 30.21 in Calm   8 mph 67% 0.00 in 0 W/m2
02:30 49.5 °F 39.4 °F 30.20 in Calm   7 mph 68% 0.00 in 0 W/m2
03:00 49.4 °F 39.3 °F 30.20 in Calm   9 mph 68% 0.00 in 0 W/m2
03:30 49 °F 39.7 °F 30.20 in Calm   5 mph 70% 0.00 in 0 W/m2
04:04 48.8 °F 39.5 °F 30.20 in ENE 0.5 mph 4 mph 70% 0.00 in 0 W/m2
04:09 48.8 °F 39.6 °F 30.20 in North 1.3 mph 9 mph 70.3% 0.00 in 0 W/m2
04:14 48.8 °F 39.6 °F 30.20 in NE 0.5 mph 9 mph 70.4% 0.00 in 0 W/m2
04:19 48.7 °F 39.6 °F 30.19 in NNE 0.3 mph 9 mph 70.7% 0.00 in 0 W/m2
04:24 48.7 °F 39.7 °F 30.19 in NE 0.1 mph 9 mph 71% 0.00 in 0 W/m2
04:29 48.7 °F 39.7 °F 30.19 in NE 0.5 mph 9 mph 71% 0.00 in 0 W/m2
04:34 48.7 °F 39.7 °F 30.20 in NNE 0.3 mph 9 mph 71% 0.00 in 0 W/m2
04:39 48.7 °F 39.7 °F 30.20 in ENE 0.9 mph 9 mph 71% 0.00 in 0 W/m2
04:44 48.7 °F 39.7 °F 30.20 in NNE 1.3 mph 9 mph 71% 0.00 in 0 W/m2
04:49 48.7 °F 39.7 °F 30.20 in Calm   9 mph 71% 0.00 in 0 W/m2
04:54 48.7 °F 39.6 °F 30.20 in ENE 1.1 mph 9 mph 70.4% 0.00 in 0 W/m2
04:59 48.8 °F 39.8 °F 30.20 in ENE 0.7 mph 9 mph 70.9% 0.00 in 0 W/m2
05:04 48.8 °F 39.8 °F 30.20 in NE 0.7 mph 9 mph 70.8% 0.00 in 0 W/m2
05:09 48.9 °F 39.5 °F 30.20 in East 0.8 mph 6 mph 70% 0.00 in 0 W/m2
05:14 48.9 °F 39.5 °F 30.20 in NE 1.1 mph 11 mph 70% 0.00 in 0 W/m2
05:19 48.9 °F 39.5 °F 30.21 in North 0.2 mph 11 mph 70% 0.00 in 0 W/m2
05:24 48.9 °F 39.6 °F 30.21 in NNE 1.2 mph 11 mph 70% 0.00 in 0 W/m2
05:29 48.9 °F 39.6 °F 30.22 in ENE 1.3 mph 11 mph 70% 0.00 in 0 W/m2
05:34 48.9 °F 39.6 °F 30.21 in WNW 0.1 mph 11 mph 70% 0.00 in 0 W/m2
05:39 48.9 °F 39.6 °F 30.22 in ENE 0.7 mph 6 mph 70% 0.00 in 0 W/m2
05:44 48.9 °F 39.5 °F 30.22 in NNE 0.5 mph 6 mph 70% 0.00 in 0 W/m2
05:49 48.8 °F 39.5 °F 30.22 in East 0.6 mph 6 mph 70% 0.00 in 0 W/m2
05:54 48.8 °F 39.5 °F 30.22 in NE 0.7 mph 8 mph 70% 0.00 in 0 W/m2
05:59 48.7 °F 39.4 °F 30.22 in NNE 0.2 mph 8 mph 70% 0.00 in 0 W/m2
06:04 48.7 °F 39.4 °F 30.22 in NE 0.6 mph 8 mph 70% 0.00 in 0 W/m2
06:09 48.6 °F 39.3 °F 30.22 in North 0.3 mph 5 mph 70% 0.00 in 0 W/m2
06:14 48.6 °F 39.3 °F 30.22 in NNE 1.2 mph 7 mph 70% 0.00 in 0 W/m2
06:19 48.5 °F 39.2 °F 30.22 in WNW 0.4 mph 7 mph 70% 0.00 in 0 W/m2
06:24 48.5 °F 39.2 °F 30.22 in NW 0.9 mph 9 mph 70.2% 0.00 in 0 W/m2
06:29 48.4 °F 39.2 °F 30.22 in NNE 0.4 mph 9 mph 70.2% 0.00 in 0 W/m2
06:34 48.4 °F 39.3 °F 30.22 in NNE 1 mph 12 mph 70.7% 0.00 in 0 W/m2
06:39 48.3 °F 39.2 °F 30.21 in North 0.3 mph 12 mph 70.7% 0.00 in 0 W/m2
06:44 48.2 °F 39.3 °F 30.22 in ENE 0.8 mph 12 mph 71% 0.00 in 0 W/m2
06:49 48.1 °F 39.2 °F 30.22 in NNE 0.1 mph 12 mph 71% 0.00 in 0 W/m2
06:54 48.1 °F 39.2 °F 30.22 in North 0.4 mph 12 mph 71% 0.00 in 0 W/m2
06:59 48.1 °F 39.1 °F 30.22 in North 0.3 mph 12 mph 71.1% 0.00 in 7 W/m2
07:01 48 °F 39.2 °F 30.22 in NNE 0.3 mph 12 mph 71.4% 0.00 in 7 W/m2
07:30 47.8 °F 39.2 °F 30.23 in NW 1 mph 10 mph 72% 0.00 in 14 W/m2
08:04 48.4 °F 40.4 °F 30.23 in NNW 0.4 mph 2 mph 73.8% 0.00 in 54 W/m2
08:09 48.5 °F 40.5 °F 30.24 in North 0.9 mph 6 mph 73.6% 0.00 in 54 W/m2
08:14 48.6 °F 40.4 °F 30.24 in North 0.6 mph 6 mph 73.3% 0.00 in 46 W/m2
08:19 48.7 °F 40.4 °F 30.24 in NW 1.2 mph 11 mph 72.9% 0.00 in 49 W/m2
08:24 48.7 °F 40.2 °F 30.24 in NW 0.1 mph 11 mph 72.3% 0.00 in 51 W/m2
08:29 48.7 °F 40.1 °F 30.24 in NNW 1.5 mph 11 mph 71.8% 0.00 in 54 W/m2
08:34 48.8 °F 39.8 °F 30.24 in NNW 1.2 mph 11 mph 71% 0.00 in 58 W/m2
08:39 48.7 °F 39.6 °F 30.25 in NNE 1.8 mph 13 mph 70.6% 0.00 in 62 W/m2
08:44 48.7 °F 39.5 °F 30.25 in ENE 0.2 mph 13 mph 70.6% 0.00 in 69 W/m2
08:49 48.6 °F 39.6 °F 30.25 in North 1 mph 13 mph 71% 0.00 in 70 W/m2
08:54 48.6 °F 39.6 °F 30.25 in NNW 0.4 mph 13 mph 70.9% 0.00 in 72 W/m2
08:59 48.6 °F 39.7 °F 30.25 in NNE 0.4 mph 13 mph 71.2% 0.00 in 81 W/m2
09:04 48.6 °F 39.4 °F 30.25 in SE 0.3 mph 13 mph 70.4% 0.00 in 90 W/m2
09:09 48.6 °F 39.6 °F 30.25 in NNE 0.2 mph 3 mph 70.8% 0.00 in 97 W/m2
09:14 48.6 °F 39.6 °F 30.26 in NNE 0.2 mph 4 mph 71% 0.00 in 105 W/m2
09:19 48.7 °F 39.8 °F 30.26 in ENE 0.3 mph 6 mph 71.4% 0.00 in 116 W/m2
09:24 48.8 °F 39.8 °F 30.26 in NW 1 mph 11 mph 71% 0.00 in 118 W/m2
09:29 48.8 °F 39.8 °F 30.26 in ENE 1.2 mph 11 mph 71% 0.00 in 111 W/m2
09:34 48.9 °F 39.9 °F 30.26 in NNE 2.1 mph 15 mph 71% 0.00 in 113 W/m2
09:39 48.9 °F 39.7 °F 30.26 in NE 2.3 mph 15 mph 70.4% 0.00 in 114 W/m2
09:44 49 °F 39.8 °F 30.26 in NE 1.7 mph 15 mph 70.4% 0.00 in 116 W/m2
09:49 49.1 °F 39.7 °F 30.26 in NE 1.5 mph 15 mph 70% 0.00 in 125 W/m2
09:54 49.1 °F 39.8 °F 30.25 in ENE 1.1 mph 15 mph 70% 0.00 in 134 W/m2
09:59 49.2 °F 40 °F 30.25 in NE 0.8 mph 15 mph 70.6% 0.00 in 137 W/m2
10:04 49.2 °F 40 °F 30.26 in NNE 1.5 mph 15 mph 70.5% 0.00 in 139 W/m2
10:09 49.3 °F 40 °F 30.26 in NNE 1.5 mph 12 mph 70.3% 0.00 in 139 W/m2
10:14 49.4 °F 40.3 °F 30.26 in ENE 1 mph 12 mph 70.9% 0.00 in 148 W/m2
10:19 49.4 °F 40.4 °F 30.26 in NE 1.8 mph 12 mph 71% 0.00 in 155 W/m2
10:24 49.4 °F 40.6 °F 30.25 in NNW 1.8 mph 12 mph 71.3% 0.00 in 162 W/m2
10:29 49.5 °F 40.5 °F 30.25 in NNW 1.5 mph 12 mph 71% 0.00 in 163 W/m2
10:34 49.6 °F 40.6 °F 30.25 in North 1.4 mph 12 mph 71% 0.00 in 172 W/m2
10:39 49.7 °F 40.8 °F 30.25 in NE 1.7 mph 16 mph 71.2% 0.00 in 174 W/m2
10:44 49.8 °F 40.8 °F 30.25 in NNE 2.1 mph 16 mph 71% 0.00 in 172 W/m2
10:49 49.9 °F 40.9 °F 30.25 in NNW 1.1 mph 16 mph 71% 0.00 in 178 W/m2
10:53 50 °F 41 °F 30.25 in ENE 0.8 mph 16 mph 71% 0.00 in 185 W/m2
11:00 50.2 °F 41.2 °F 30.25 in ENE 1 mph 16 mph 71% 0.00 in 177 W/m2
11:30 50.6 °F 41.2 °F 30.24 in ENE 1 mph 12 mph 70% 0.00 in 195 W/m2
12:04 52.3 °F 42.8 °F 30.25 in NNE 1.3 mph 12 mph 69.9% 0.00 in 283 W/m2
12:07 52.5 °F 42.9 °F 30.25 in NNW 1.4 mph 10 mph 69.7% 0.00 in 285 W/m2
12:30 52.8 °F 42.9 °F 30.24 in ENE 1 mph 11 mph 69% 0.00 in 274 W/m2
13:00 53.7 °F 43.8 °F 30.23 in NE 1 mph 12 mph 69% 0.00 in 245 W/m2
13:30 54.6 °F 43.5 °F 30.23 in NE 3 mph 15 mph 66% 0.00 in 205 W/m2
14:00 54.9 °F 43 °F 30.23 in NE 3 mph 12 mph 64% 0.00 in 158 W/m2
14:30 54.6 °F 43.5 °F 30.22 in ENE 3 mph 15 mph 66% 0.00 in 158 W/m2
15:00 54.6 °F 43.5 °F 30.22 in ENE 3 mph 13 mph 66% 0.00 in 150 W/m2
15:30 54.5 °F 43.4 °F 30.22 in ENE 2 mph 12 mph 66% 0.00 in 106 W/m2
16:04 54.3 °F 43.2 °F 30.20 in ENE 1.1 mph 4 mph 66% 0.00 in 74 W/m2
16:09 54.3 °F 43.5 °F 30.20 in ENE 1.9 mph 9 mph 66.8% 0.00 in 72 W/m2
16:14 54.2 °F 43.3 °F 30.20 in ENE 2.2 mph 11 mph 66.5% 0.00 in 70 W/m2
16:19 54.2 °F 43.4 °F 30.20 in ENE 1.2 mph 11 mph 66.9% 0.00 in 70 W/m2
16:24 54.1 °F 43.5 °F 30.20 in ENE 0.8 mph 11 mph 67.1% 0.00 in 69 W/m2
16:29 54.1 °F 43.6 °F 30.20 in ENE 0.9 mph 11 mph 67.6% 0.00 in 65 W/m2
16:34 54.1 °F 43.8 °F 30.19 in ENE 1.5 mph 11 mph 68% 0.00 in 62 W/m2
16:39 54 °F 43.7 °F 30.20 in ENE 1 mph 9 mph 68% 0.00 in 56 W/m2
16:44 54 °F 43.7 °F 30.20 in ENE 0.5 mph 9 mph 68% 0.00 in 49 W/m2
16:49 53.9 °F 43.6 °F 30.20 in ENE 1.7 mph 10 mph 68% 0.00 in 46 W/m2
16:54 53.9 °F 43.7 °F 30.20 in ENE 0.5 mph 10 mph 68.4% 0.00 in 44 W/m2
16:59 53.9 °F 43.7 °F 30.20 in NE 2.2 mph 12 mph 68.3% 0.00 in 44 W/m2
17:04 53.9 °F 43.6 °F 30.20 in ENE 1.5 mph 12 mph 68% 0.00 in 42 W/m2
17:09 53.9 °F 43.7 °F 30.20 in NE 1.7 mph 11 mph 68.2% 0.00 in 42 W/m2
17:14 53.9 °F 43.8 °F 30.20 in ENE 1.6 mph 11 mph 68.4% 0.00 in 42 W/m2
17:19 53.9 °F 44 °F 30.21 in NE 2.1 mph 11 mph 69% 0.00 in 40 W/m2
17:24 53.9 °F 44 °F 30.21 in ENE 2 mph 11 mph 69% 0.00 in 39 W/m2
17:29 53.8 °F 43.8 °F 30.21 in ENE 1.1 mph 11 mph 68.7% 0.00 in 33 W/m2
17:34 53.8 °F 43.7 °F 30.20 in East 2.4 mph 11 mph 68.6% 0.00 in 30 W/m2
17:39 53.7 °F 43.4 °F 30.20 in NE 3.4 mph 14 mph 68% 0.00 in 25 W/m2
17:44 53.7 °F 43.4 °F 30.20 in ENE 3 mph 14 mph 68% 0.00 in 23 W/m2
17:49 53.6 °F 43.3 °F 30.20 in ENE 1.9 mph 14 mph 68% 0.00 in 21 W/m2
17:54 53.5 °F 43.2 °F 30.20 in ENE 2.3 mph 14 mph 68% 0.00 in 18 W/m2
17:59 53.5 °F 43.2 °F 30.20 in NE 1.9 mph 14 mph 68% 0.00 in 14 W/m2
18:04 53.4 °F 43.1 °F 30.20 in ENE 2.1 mph 14 mph 68% 0.00 in 11 W/m2
18:09 53.3 °F 43 °F 30.20 in NE 3.3 mph 10 mph 68% 0.00 in 7 W/m2
18:14 53.2 °F 43 °F 30.20 in ENE 1.7 mph 10 mph 68.1% 0.00 in 0 W/m2
18:19 53.1 °F 43.2 °F 30.20 in NE 2.4 mph 10 mph 68.9% 0.00 in 0 W/m2
18:24 53.1 °F 43.2 °F 30.20 in ENE 1.8 mph 13 mph 69% 0.00 in 0 W/m2
18:29 53 °F 43.1 °F 30.20 in ENE 2.4 mph 13 mph 69% 0.00 in 0 W/m2
18:34 53 °F 43.1 °F 30.20 in NE 2.8 mph 14 mph 69% 0.00 in 0 W/m2
18:39 52.9 °F 43 °F 30.20 in ENE 2.8 mph 14 mph 69% 0.00 in 0 W/m2
18:44 52.9 °F 43 °F 30.20 in NE 1.7 mph 14 mph 69% 0.00 in 0 W/m2
18:49 52.8 °F 42.9 °F 30.20 in ENE 1.5 mph 14 mph 69% 0.00 in 0 W/m2
18:54 52.8 °F 42.9 °F 30.20 in ENE 2.6 mph 14 mph 69% 0.00 in 0 W/m2
18:59 52.7 °F 42.8 °F 30.20 in NE 1 mph 14 mph 69% 0.00 in 0 W/m2
19:04 52.7 °F 43 °F 30.20 in NE 1.6 mph 14 mph 69.5% 0.00 in 0 W/m2
19:09 52.7 °F 43.1 °F 30.20 in ENE 1.6 mph 9 mph 69.8% 0.00 in 0 W/m2
19:14 52.6 °F 43.1 °F 30.20 in NE 1.4 mph 9 mph 70% 0.00 in 0 W/m2
19:19 52.6 °F 43.3 °F 30.20 in NNE 1 mph 9 mph 70.6% 0.00 in 0 W/m2
19:24 52.5 °F 43.3 °F 30.20 in NE 0.4 mph 9 mph 70.8% 0.00 in 0 W/m2
19:29 52.5 °F 43.3 °F 30.20 in ENE 1.1 mph 9 mph 71% 0.00 in 0 W/m2
19:34 52.4 °F 43.4 °F 30.20 in NE 1.4 mph 9 mph 71.4% 0.00 in 0 W/m2
19:39 52.3 °F 43.8 °F 30.20 in East 0.4 mph 6 mph 72.6% 0.00 in 0 W/m2
19:44 52.2 °F 44.1 °F 30.19 in North 0.5 mph 6 mph 73.9% 0.00 in 0 W/m2
19:49 51.9 °F 44 °F 30.20 in NE 2.3 mph 10 mph 74.3% 0.00 in 0 W/m2
19:54 51.7 °F 44 °F 30.20 in ENE 0.7 mph 10 mph 75% 0.00 in 0 W/m2
19:58 51.5 °F 44.1 °F 30.19 in Calm   10 mph 75.5% 0.00 in 0 W/m2
20:04 51.3 °F 44 °F 30.18 in ESE 0.2 mph 1 mph 76% 0.00 in 0 W/m2
20:09 51.2 °F 44 °F 30.19 in ENE 1.1 mph 5 mph 76% 0.00 in 0 W/m2
20:14 51.1 °F 44.2 °F 30.19 in NNE 0.5 mph 5 mph 77% 0.00 in 0 W/m2
20:19 51 °F 43.9 °F 30.19 in ENE 0.9 mph 8 mph 76.6% 0.00 in 0 W/m2
20:24 51 °F 43.7 °F 30.19 in East 0.1 mph 8 mph 76% 0.00 in 0 W/m2
20:29 51 °F 43.7 °F 30.19 in NNE 0.4 mph 8 mph 76% 0.00 in 0 W/m2
20:34 51 °F 43.7 °F 30.18 in North 0.7 mph 9 mph 76% 0.00 in 0 W/m2
20:39 51 °F 43.6 °F 30.19 in NE 0.4 mph 9 mph 75.9% 0.00 in 0 W/m2
20:44 51 °F 43.4 °F 30.19 in NE 0.4 mph 9 mph 75.2% 0.00 in 0 W/m2
20:49 51 °F 43.3 °F 30.19 in ENE 0.6 mph 9 mph 74.7% 0.00 in 0 W/m2
20:54 51 °F 43.1 °F 30.19 in NE 1 mph 9 mph 74.3% 0.00 in 0 W/m2
20:59 51 °F 43.2 °F 30.19 in NE 0.9 mph 9 mph 74.5% 0.00 in 0 W/m2
21:04 51 °F 43.1 °F 30.19 in ENE 0.9 mph 10 mph 74% 0.00 in 0 W/m2
21:09 51 °F 43 °F 30.19 in NE 0.9 mph 10 mph 74% 0.00 in 0 W/m2
21:14 51 °F 43 °F 30.19 in ENE 0.9 mph 10 mph 74% 0.00 in 0 W/m2
21:19 51 °F 43 °F 30.18 in ENE 0.3 mph 10 mph 74% 0.00 in 0 W/m2
21:24 50.9 °F 43 °F 30.18 in NE 0.6 mph 10 mph 74% 0.00 in 0 W/m2
21:29 50.9 °F 42.6 °F 30.18 in ENE 1.3 mph 10 mph 73.1% 0.00 in 0 W/m2
21:34 50.9 °F 42.5 °F 30.18 in NE 1.4 mph 11 mph 72.8% 0.00 in 0 W/m2
21:39 50.9 °F 42 °F 30.17 in ENE 1.3 mph 11 mph 71.5% 0.00 in 0 W/m2
21:44 50.9 °F 41.8 °F 30.18 in ENE 1.8 mph 11 mph 70.9% 0.00 in 0 W/m2
21:49 50.9 °F 41.5 °F 30.18 in ENE 1.2 mph 11 mph 70% 0.00 in 0 W/m2
21:54 51 °F 41.6 °F 30.18 in NE 0.5 mph 11 mph 70.3% 0.00 in 0 W/m2
21:59 50.9 °F 41.8 °F 30.17 in NNW 0.3 mph 11 mph 71% 0.00 in 0 W/m2
22:04 50.8 °F 41.8 °F 30.17 in NE 0.3 mph 11 mph 71% 0.00 in 0 W/m2
22:09 50.8 °F 41.8 °F 30.17 in ENE 0.4 mph 4 mph 71% 0.00 in 0 W/m2
22:14 50.7 °F 41.7 °F 30.17 in ENE 0.4 mph 4 mph 71% 0.00 in 0 W/m2
22:18 50.7 °F 41.5 °F 30.17 in NE 1.2 mph 10 mph 70.5% 0.00 in 0 W/m2
Hartford County Weather
Compliments of Weather Underground - 4 mb